Time;durP1;ratioP1;P1;durP2;ratioP2;P2;SDS_P1;SDS_P2;PMS_P1;PMS_P2;Temp;Humidity;BMP_temperature;BMP_pressure;BME280_temperature;BME280_humidity;BME280_pressure;Samples;Min_cycle;Max_cycle;Signal;HPM_P1;HPM_P2
2021/11/27 00:01:34;;;;;;;12.55;9.90;;;;;;;3.39;85.34;97405.63;10339793;28;20105;-64
2021/11/27 00:06:36;;;;;;;13.68;9.02;;;;;;;3.31;84.92;97405.56;10342349;28;20450;-64
2021/11/27 00:11:38;;;;;;;11.90;8.43;;;;;;;3.50;85.67;97394.09;10309394;28;20045;-64
2021/11/27 00:16:40;;;;;;;11.15;9.43;;;;;;;3.40;85.25;97388.09;10304653;28;20049;-64
2021/11/27 00:21:44;;;;;;;12.88;9.63;;;;;;;3.45;85.63;97397.19;10304112;28;20080;-64
2021/11/27 00:26:45;;;;;;;9.82;8.70;;;;;;;3.43;86.16;97372.81;10313867;28;20046;-64
2021/11/27 00:31:46;;;;;;;12.18;8.27;;;;;;;3.53;85.64;97384.09;10301296;28;20061;-64
2021/11/27 00:36:48;;;;;;;9.75;8.15;;;;;;;3.52;85.64;97377.19;10300829;28;20062;-63
2021/11/27 00:41:50;;;;;;;9.68;6.93;;;;;;;3.50;85.88;97379.16;10297883;28;20046;-64
2021/11/27 00:46:52;;;;;;;9.45;7.15;;;;;;;3.60;86.25;97362.47;10304808;28;20519;-64
2021/11/27 00:51:54;;;;;;;8.68;6.78;;;;;;;3.46;86.05;97356.75;10302166;28;20117;-64
2021/11/27 00:56:55;;;;;;;7.47;6.68;;;;;;;3.63;86.05;97360.34;10299924;28;20234;-64
2021/11/27 01:01:57;;;;;;;7.53;6.35;;;;;;;3.73;85.82;97368.19;10346234;28;20050;-65
2021/11/27 01:06:59;;;;;;;6.90;5.57;;;;;;;3.60;86.19;97344.06;10309923;28;20047;-65
2021/11/27 01:12:00;;;;;;;6.75;5.50;;;;;;;3.74;86.31;97351.41;10294374;28;20057;-64
2021/11/27 01:17:05;;;;;;;7.22;6.28;;;;;;;3.74;86.15;97343.53;10297631;28;20057;-64
2021/11/27 01:22:12;;;;;;;7.85;5.30;;;;;;;3.72;86.09;97341.06;10344617;28;20157;-64
2021/11/27 01:27:14;;;;;;;7.85;5.45;;;;;;;3.73;85.99;97323.44;10338710;28;20054;-65
2021/11/27 01:32:16;;;;;;;8.15;6.00;;;;;;;3.75;86.23;97329.38;10343526;28;20057;-64
2021/11/27 01:37:17;;;;;;;7.65;5.65;;;;;;;3.70;86.49;97315.84;10347100;28;20054;-63
2021/11/27 01:42:18;;;;;;;6.47;5.30;;;;;;;3.71;86.51;97304.38;10342728;28;20417;-64
2021/11/27 01:47:20;;;;;;;7.82;5.05;;;;;;;3.80;86.98;97315.75;10340108;28;20459;-64
2021/11/27 01:52:22;;;;;;;5.22;4.50;;;;;;;3.77;86.14;97303.75;10329944;28;20042;-64
2021/11/27 01:57:23;;;;;;;6.25;4.78;;;;;;;3.69;86.08;97288.75;10330667;28;20047;-64
2021/11/27 02:02:25;;;;;;;6.05;5.22;;;;;;;3.76;86.08;97283.69;10329332;28;20050;-64
2021/11/27 02:07:27;;;;;;;7.32;4.68;;;;;;;3.92;85.72;97303.19;10305747;28;20512;-65
2021/11/27 02:12:29;;;;;;;4.63;4.22;;;;;;;3.97;84.99;97300.94;10291242;28;20053;-63
2021/11/27 02:17:30;;;;;;;5.25;4.22;;;;;;;3.99;85.14;97299.78;10299630;28;20416;-64
2021/11/27 02:22:34;;;;;;;6.55;3.97;;;;;;;4.01;84.58;97295.22;10299356;28;20519;-63
2021/11/27 02:27:35;;;;;;;5.38;4.03;;;;;;;3.95;84.61;97281.81;10297874;28;20132;-64
2021/11/27 02:32:42;;;;;;;6.40;5.07;;;;;;;4.10;83.75;97290.81;10307154;28;20057;-65
2021/11/27 02:37:44;;;;;;;5.32;4.35;;;;;;;4.10;84.02;97296.09;10295576;28;20669;-64
2021/11/27 02:42:45;;;;;;;6.63;4.28;;;;;;;4.14;83.53;97286.88;10295808;28;20133;-65
2021/11/27 02:47:47;;;;;;;4.80;3.88;;;;;;;4.25;83.36;97284.00;10312220;28;20150;-64
2021/11/27 02:52:48;;;;;;;4.03;3.20;;;;;;;4.14;82.74;97259.72;10304329;28;20402;-64
2021/11/27 02:57:50;;;;;;;3.63;3.33;;;;;;;4.15;82.93;97256.94;10300473;28;20873;-64
2021/11/27 03:02:51;;;;;;;4.22;3.30;;;;;;;4.07;83.26;97241.13;10303202;28;20494;-64
2021/11/27 03:07:53;;;;;;;3.72;3.33;;;;;;;4.19;83.01;97276.72;10297849;28;20127;-64
2021/11/27 03:12:54;;;;;;;5.30;4.45;;;;;;;4.15;83.06;97277.19;10296875;28;20054;-64
2021/11/27 03:17:56;;;;;;;4.28;3.75;;;;;;;4.24;83.41;97281.53;10296825;28;20517;-64
2021/11/27 03:22:57;;;;;;;3.40;3.10;;;;;;;4.19;83.60;97260.94;10313001;28;20057;-64
2021/11/27 03:27:59;;;;;;;4.22;3.88;;;;;;;4.20;83.54;97270.50;10299503;28;20083;-64
2021/11/27 03:33:01;;;;;;;6.63;3.50;;;;;;;4.13;84.50;97272.09;10298536;28;20689;-64
2021/11/27 03:38:03;;;;;;;4.32;3.92;;;;;;;4.10;85.07;97271.56;10300695;28;20146;-64
2021/11/27 03:43:05;;;;;;;3.83;3.47;;;;;;;3.91;84.65;97268.16;10296971;28;20054;-64
2021/11/27 03:48:08;;;;;;;3.95;3.55;;;;;;;3.97;85.59;97279.88;10302524;28;20090;-63
2021/11/27 03:53:14;;;;;;;4.10;3.58;;;;;;;3.94;84.53;97282.81;10309051;28;21429;-64
2021/11/27 03:58:16;;;;;;;3.72;3.30;;;;;;;3.94;85.37;97280.19;10300534;28;20050;-64
2021/11/27 04:03:19;;;;;;;4.35;3.95;;;;;;;4.11;84.62;97281.94;10306841;28;20058;-64
2021/11/27 04:08:21;;;;;;;4.72;3.60;;;;;;;4.15;84.29;97278.00;10324048;28;20050;-63
2021/11/27 04:13:23;;;;;;;4.65;4.20;;;;;;;3.97;84.38;97259.63;10299453;28;20070;-65
2021/11/27 04:18:25;;;;;;;3.60;3.30;;;;;;;4.06;85.22;97284.22;10304778;28;20453;-64
2021/11/27 04:23:26;;;;;;;3.72;3.17;;;;;;;4.06;85.41;97257.88;10305376;28;20504;-63
2021/11/27 04:28:28;;;;;;;5.88;3.40;;;;;;;4.29;84.91;97278.41;10305488;28;20476;-64
2021/11/27 04:33:30;;;;;;;4.15;3.20;;;;;;;4.35;84.33;97277.78;10300861;28;20181;-64
2021/11/27 04:38:31;;;;;;;4.85;3.15;;;;;;;4.36;84.49;97289.97;10305340;28;20039;-64
2021/11/27 04:43:34;;;;;;;3.75;3.30;;;;;;;4.39;84.41;97294.94;10300581;28;20054;-64
2021/11/27 04:48:35;;;;;;;4.15;3.85;;;;;;;4.32;84.19;97289.44;10298314;28;20046;-65
2021/11/27 04:53:38;;;;;;;4.68;3.50;;;;;;;4.19;84.21;97282.00;10303841;28;20128;-64
2021/11/27 04:58:39;;;;;;;5.22;3.50;;;;;;;4.23;84.08;97303.56;10303827;28;20469;-65
2021/11/27 05:03:40;;;;;;;5.05;3.53;;;;;;;4.19;84.62;97296.97;10302127;28;20100;-64
2021/11/27 05:08:42;;;;;;;6.03;3.72;;;;;;;4.32;84.04;97293.91;10294243;28;20557;-64
2021/11/27 05:13:49;;;;;;;4.43;3.15;;;;;;;4.35;84.07;97299.66;10296269;28;20077;-64
2021/11/27 05:18:50;;;;;;;3.95;2.80;;;;;;;4.21;84.61;97282.66;10297137;28;20130;-64
2021/11/27 05:23:51;;;;;;;3.83;3.45;;;;;;;4.40;84.24;97299.22;10305437;28;20132;-65
2021/11/27 05:28:53;;;;;;;3.47;3.15;;;;;;;4.32;84.19;97288.63;10305932;28;20114;-62
2021/11/27 05:39:06;;;;;;;4.03;2.60;;;;;;;4.41;84.36;97311.41;10334427;28;20037;-64
2021/11/27 05:44:08;;;;;;;2.95;2.65;;;;;;;4.55;83.19;97316.09;10332487;28;20467;-63
2021/11/27 05:49:09;;;;;;;3.28;2.80;;;;;;;4.44;83.11;97297.91;10306954;28;20065;-64
2021/11/27 05:54:10;;;;;;;2.97;2.15;;;;;;;4.31;83.31;97306.25;10296521;28;20153;-64
2021/11/27 05:59:12;;;;;;;3.78;2.80;;;;;;;4.34;83.38;97318.25;10297713;28;20050;-64
2021/11/27 06:04:13;;;;;;;1.98;1.85;;;;;;;4.30;83.24;97314.31;10293681;28;20153;-65
2021/11/27 06:09:15;;;;;;;3.85;2.40;;;;;;;4.47;82.91;97323.94;10296541;28;20058;-64
2021/11/27 06:14:16;;;;;;;2.67;2.40;;;;;;;4.54;82.84;97324.97;10296145;28;20104;-64
2021/11/27 06:19:18;;;;;;;3.42;2.50;;;;;;;4.39;82.25;97321.28;10299050;28;20416;-64
2021/11/27 06:24:19;;;;;;;2.83;2.13;;;;;;;4.49;82.53;97353.59;10294283;28;20404;-64
2021/11/27 06:29:21;;;;;;;2.30;2.10;;;;;;;4.43;83.11;97352.41;10292450;28;20161;-63
2021/11/27 06:34:22;;;;;;;2.65;2.42;;;;;;;4.28;82.59;97345.22;10297087;28;20047;-63
2021/11/27 06:39:23;;;;;;;3.22;2.22;;;;;;;4.21;83.64;97355.56;10293478;28;20043;-63
2021/11/27 06:44:25;;;;;;;2.80;2.47;;;;;;;4.47;83.92;97366.06;10294189;28;20046;-63
2021/11/27 06:49:27;;;;;;;2.67;2.47;;;;;;;4.44;83.55;97366.38;10299091;28;20103;-63
2021/11/27 06:54:28;;;;;;;3.42;2.20;;;;;;;4.45;84.38;97359.34;10316259;28;20046;-63
2021/11/27 06:59:30;;;;;;;3.08;2.78;;;;;;;4.59;83.34;97375.41;10308020;28;20098;-64
2021/11/27 07:04:31;;;;;;;3.92;3.10;;;;;;;4.52;83.69;97387.53;10303884;28;20134;-64
2021/11/27 07:09:34;;;;;;;3.50;3.20;;;;;;;4.41;84.00;97387.78;10303466;28;20051;-64
2021/11/27 07:14:35;;;;;;;3.35;3.05;;;;;;;4.46;84.94;97396.06;10308788;28;20106;-65
2021/11/27 07:19:37;;;;;;;4.35;3.08;;;;;;;4.42;84.32;97395.53;10308480;28;20434;-64
2021/11/27 07:24:38;;;;;;;3.45;3.15;;;;;;;4.41;84.25;97390.41;10309656;28;20129;-62
2021/11/27 07:29:41;;;;;;;3.13;2.83;;;;;;;4.52;83.80;97420.94;10316409;28;20405;-63
2021/11/27 07:34:42;;;;;;;3.60;3.25;;;;;;;4.47;83.57;97426.66;10307088;28;20058;-63
2021/11/27 07:39:44;;;;;;;4.47;4.07;;;;;;;4.48;84.06;97428.31;10312075;28;20060;-64
2021/11/27 07:44:46;;;;;;;5.65;4.95;;;;;;;4.60;84.32;97437.63;10323506;23;20034;-57
2021/11/27 07:49:47;;;;;;;4.78;4.38;;;;;;;4.58;84.47;97446.69;10218224;28;20062;-57
2021/11/27 07:54:49;;;;;;;4.85;4.45;;;;;;;4.62;84.58;97445.38;10219882;28;20070;-58
2021/11/27 07:59:51;;;;;;;4.78;4.30;;;;;;;4.64;84.04;97447.84;10231397;28;20053;-59
2021/11/27 08:04:52;;;;;;;5.38;4.13;;;;;;;4.69;84.34;97458.78;10217929;28;20076;-59
2021/11/27 08:09:53;;;;;;;6.22;4.90;;;;;;;4.60;84.34;97455.25;10254751;28;20108;-58
2021/11/27 08:14:55;;;;;;;4.28;3.88;;;;;;;4.59;84.73;97464.97;10254376;28;20050;-58
2021/11/27 08:19:57;;;;;;;4.38;3.97;;;;;;;4.65;84.90;97470.59;10258035;28;20081;-58
2021/11/27 08:24:59;;;;;;;6.00;4.43;;;;;;;4.77;83.88;97478.09;10250536;28;20102;-59
2021/11/27 08:30:03;;;;;;;4.50;4.10;;;;;;;4.75;84.43;97484.50;10253482;28;20855;-59
2021/11/27 08:35:06;;;;;;;4.20;3.88;;;;;;;4.93;83.84;97482.63;10256696;28;20125;-59
2021/11/27 08:40:08;;;;;;;3.97;3.53;;;;;;;4.92;83.62;97490.69;10258400;28;20054;-59
2021/11/27 08:45:11;;;;;;;4.43;3.55;;;;;;;4.90;83.50;97508.50;10252267;28;20058;-64
2021/11/27 08:50:13;;;;;;;4.85;4.32;;;;;;;4.87;84.14;97504.34;10260212;28;20161;-58
2021/11/27 08:55:15;;;;;;;4.40;4.00;;;;;;;4.85;84.71;97506.31;10273686;28;20133;-57
2021/11/27 09:00:17;;;;;;;4.38;3.97;;;;;;;4.92;84.22;97527.59;10255173;28;20125;-57
2021/11/27 09:05:18;;;;;;;3.90;3.60;;;;;;;4.88;84.29;97532.38;10252996;28;20051;-57
2021/11/27 09:10:21;;;;;;;3.35;2.95;;;;;;;4.91;85.09;97534.69;10255238;28;21127;-58
2021/11/27 09:15:23;;;;;;;4.13;3.83;;;;;;;4.74;84.37;97546.09;10199171;28;20050;-58
2021/11/27 09:20:25;;;;;;;3.65;3.35;;;;;;;4.93;84.56;97539.81;10213213;28;20059;-58
2021/11/27 09:25:29;;;;;;;3.60;3.30;;;;;;;4.77;84.44;97548.41;10199697;28;20476;-58
2021/11/27 09:30:31;;;;;;;4.28;3.88;;;;;;;4.86;84.32;97557.22;10268411;28;20063;-62
2021/11/27 09:35:33;;;;;;;3.75;3.45;;;;;;;4.81;84.39;97568.22;10235145;28;20173;-58
2021/11/27 09:40:37;;;;;;;3.80;3.50;;;;;;;4.84;84.24;97578.47;10201367;28;20094;-58
2021/11/27 09:45:39;;;;;;;3.30;3.00;;;;;;;4.88;84.21;97585.09;10219085;28;20456;-58
2021/11/27 09:50:41;;;;;;;3.50;3.30;;;;;;;4.80;84.14;97592.91;10201228;28;20581;-58
2021/11/27 09:55:43;;;;;;;3.53;3.22;;;;;;;4.85;84.55;97585.41;10212480;28;20156;-59
2021/11/27 10:00:46;;;;;;;3.45;3.15;;;;;;;4.80;83.53;97586.81;10213624;28;20067;-58
2021/11/27 10:05:49;;;;;;;3.97;3.22;;;;;;;4.94;84.46;97600.28;10200972;28;20066;-58
2021/11/27 10:10:52;;;;;;;4.30;3.42;;;;;;;5.00;83.68;97608.56;10196187;28;20055;-58
2021/11/27 10:15:53;;;;;;;3.58;3.28;;;;;;;5.02;83.70;97617.16;10196289;28;20129;-57
2021/11/27 10:21:17;;;;;;;3.42;2.95;;;;;;;4.99;83.53;97612.19;10194415;28;21032;-57
2021/11/27 10:26:50;;;;;;;4.15;3.70;;;;;;;5.15;83.63;97609.69;10229615;28;20053;-57
2021/11/27 10:32:04;;;;;;;4.07;3.78;;;;;;;5.32;83.43;97606.16;10195772;28;20185;-60
2021/11/27 10:37:30;;;;;;;3.65;3.35;;;;;;;5.36;81.37;97603.22;10233771;28;20648;-57
2021/11/27 10:42:34;;;;;;;3.80;2.60;;;;;;;5.23;80.03;97614.19;10235640;28;20178;-58
2021/11/27 10:47:35;;;;;;;3.00;2.80;;;;;;;5.25;80.55;97623.56;10233433;28;20050;-58
2021/11/27 10:52:38;;;;;;;3.55;3.08;;;;;;;5.27;80.94;97626.91;10231348;28;20663;-58
2021/11/27 10:57:39;;;;;;;3.08;2.85;;;;;;;5.43;80.68;97628.81;10247135;28;20047;-58
2021/11/27 11:02:41;;;;;;;3.20;3.00;;;;;;;5.56;79.91;97640.78;10230387;28;20285;-62
2021/11/27 11:07:56;;;;;;;2.35;2.15;;;;;;;5.57;79.52;97653.81;10234107;28;20197;-58
2021/11/27 11:12:58;;;;;;;3.03;2.47;;;;;;;5.66;77.55;97652.88;10236317;28;20422;-58
2021/11/27 11:18:21;;;;;;;3.25;2.95;;;;;;;6.25;78.40;97656.66;10235360;28;20182;-57
2021/11/27 11:23:36;;;;;;;19.80;17.98;;;;;;;11.35;60.86;97636.63;10248322;28;20145;-60
2021/11/27 11:28:44;;;;;;;2.40;1.98;;;;;;;16.52;43.16;97628.25;10255139;28;20279;-61
2021/11/27 11:33:48;;;;;;;1.38;1.20;;;;;;;15.41;43.42;97639.66;10233733;28;20547;-61
2021/11/27 11:38:54;;;;;;;1.80;1.40;;;;;;;12.71;49.46;97652.19;10245252;28;20783;-61
2021/11/27 11:43:56;;;;;;;8.93;8.23;;;;;;;10.34;56.69;97651.56;10231406;28;20043;-60
2021/11/27 11:48:58;;;;;;;3.30;2.97;;;;;;;9.27;60.65;97659.81;10212914;28;20070;-61
2021/11/27 11:54:00;;;;;;;1.60;1.30;;;;;;;8.88;59.91;97661.59;10229086;28;20071;-60
2021/11/27 11:59:18;;;;;;;1.60;0.90;;;;;;;8.74;60.42;97675.63;10218465;28;20067;-60
2021/11/27 12:04:22;;;;;;;2.55;1.05;;;;;;;8.18;62.58;97691.56;10259802;28;20129;-61
2021/11/27 12:09:23;;;;;;;2.85;1.60;;;;;;;7.68;62.63;97694.31;10242332;28;20181;-61
2021/11/27 12:14:24;;;;;;;1.80;1.45;;;;;;;7.32;65.32;97704.47;10224532;28;20078;-60
2021/11/27 12:19:47;;;;;;;2.42;1.88;;;;;;;7.15;65.70;97706.28;10221214;28;20046;-59
2021/11/27 12:25:20;;;;;;;3.22;2.05;;;;;;;6.95;65.39;97709.22;10223892;28;20126;-59
2021/11/27 12:30:21;;;;;;;4.18;2.88;;;;;;;6.81;66.06;97713.31;10263398;28;20129;-59
2021/11/27 12:35:26;;;;;;;2.33;1.95;;;;;;;6.68;66.17;97703.22;10258023;28;20125;-59
2021/11/27 12:40:34;;;;;;;59.78;41.58;;;;;;;6.72;66.28;97707.19;10262869;28;20054;-59
2021/11/27 12:45:38;;;;;;;3.30;2.70;;;;;;;6.67;66.30;97708.66;10239284;28;20072;-59
2021/11/27 12:50:40;;;;;;;3.38;2.45;;;;;;;6.97;65.29;97706.41;10215643;28;20066;-59
2021/11/27 12:55:42;;;;;;;6.50;4.50;;;;;;;10.59;57.15;97718.59;10218409;28;20138;-59
2021/11/27 13:00:43;;;;;;;2.85;2.55;;;;;;;11.68;51.37;97723.00;10236969;28;20253;-59
2021/11/27 13:05:45;;;;;;;23.40;18.55;;;;;;;13.30;46.43;97713.97;10222416;28;20141;-60
2021/11/27 13:10:47;;;;;;;2.78;2.58;;;;;;;12.14;49.03;97732.38;10230955;28;20149;-59
2021/11/27 13:15:52;;;;;;;2.30;1.77;;;;;;;10.91;50.69;97729.84;10248132;28;20055;-60
2021/11/27 13:20:56;;;;;;;2.90;2.20;;;;;;;10.00;54.70;97734.53;10267463;28;20226;-64
2021/11/27 13:26:03;;;;;;;2.35;1.88;;;;;;;8.84;57.31;97735.41;10257651;28;20137;-58
2021/11/27 13:31:22;;;;;;;2.08;1.73;;;;;;;8.04;56.96;97744.25;10274240;28;20224;-59
2021/11/27 13:36:28;;;;;;;2.25;1.67;;;;;;;7.85;59.25;97750.78;10269875;28;21662;-59
2021/11/27 13:41:29;;;;;;;3.10;1.63;;;;;;;7.53;59.09;97744.47;10264562;28;20492;-59
2021/11/27 13:46:30;;;;;;;3.03;1.77;;;;;;;7.48;57.88;97748.63;10260832;28;20460;-59
2021/11/27 13:51:32;;;;;;;3.83;2.10;;;;;;;7.34;57.26;97753.59;10262120;28;20460;-59
2021/11/27 13:56:37;;;;;;;2.25;2.05;;;;;;;7.53;56.64;97756.91;10260882;28;20070;-59
2021/11/27 14:01:39;;;;;;;2.28;1.70;;;;;;;7.78;58.36;97778.91;10231546;28;20560;-59
2021/11/27 14:06:40;;;;;;;3.50;1.83;;;;;;;7.81;59.40;97790.97;10224989;28;20051;-59
2021/11/27 14:11:42;;;;;;;5.13;3.50;;;;;;;7.51;60.94;97795.94;10242124;28;20069;-59
2021/11/27 14:16:44;;;;;;;3.28;2.90;;;;;;;7.64;60.60;97809.53;10234835;28;20130;-59
2021/11/27 14:22:03;;;;;;;2.90;2.60;;;;;;;7.77;60.19;97811.66;10231062;28;20583;-60
2021/11/27 14:27:05;;;;;;;3.15;2.85;;;;;;;7.73;60.24;97805.03;10229233;28;20153;-59
2021/11/27 14:32:17;;;;;;;5.53;2.80;;;;;;;7.49;56.47;97817.28;10261955;28;20620;-59
2021/11/27 14:37:19;;;;;;;3.97;1.88;;;;;;;7.26;57.01;97812.59;10229002;28;20154;-59
2021/11/27 14:42:25;;;;;;;4.53;2.08;;;;;;;7.12;56.77;97817.72;10238074;28;20095;-60
2021/11/27 14:47:26;;;;;;;2.58;1.48;;;;;;;6.98;57.77;97822.63;10221504;28;20154;-59
2021/11/27 14:52:28;;;;;;;4.95;1.95;;;;;;;6.53;57.27;97834.31;10238107;28;20142;-60
2021/11/27 14:57:32;;;;;;;5.60;2.83;;;;;;;6.46;58.63;97841.22;10231849;28;20103;-59
2021/11/27 15:02:39;;;;;;;6.82;3.50;;;;;;;6.47;58.71;97840.22;10233234;28;20490;-59
2021/11/27 15:07:42;;;;;;;5.07;2.40;;;;;;;6.34;58.18;97857.31;10196706;28;20085;-60
2021/11/27 15:12:43;;;;;;;5.60;3.28;;;;;;;6.25;58.92;97855.63;10198460;28;20081;-60
2021/11/27 15:17:46;;;;;;;4.05;2.33;;;;;;;6.25;59.34;97855.63;10202170;28;20194;-59
2021/11/27 15:22:47;;;;;;;4.47;2.80;;;;;;;6.14;60.57;97847.94;10200433;28;20639;-59
2021/11/27 15:27:49;;;;;;;6.15;3.22;;;;;;;6.07;59.90;97860.13;10201434;28;20063;-59
2021/11/27 15:32:50;;;;;;;7.82;3.83;;;;;;;5.91;59.69;97861.59;10201428;28;20222;-59
2021/11/27 15:37:52;;;;;;;6.35;3.97;;;;;;;5.84;60.97;97856.09;10201989;28;20063;-59
2021/11/27 15:42:53;;;;;;;6.88;3.70;;;;;;;5.79;61.21;97858.34;10202898;28;20130;-59
2021/11/27 15:47:55;;;;;;;8.25;4.63;;;;;;;5.69;61.41;97864.69;10199418;28;20533;-64
2021/11/27 15:52:56;;;;;;;6.47;5.10;;;;;;;5.63;62.81;97863.50;10214464;28;20081;-59
2021/11/27 15:57:58;;;;;;;6.22;3.95;;;;;;;5.50;62.43;97877.06;10201976;28;20059;-59
2021/11/27 16:02:59;;;;;;;8.23;4.82;;;;;;;5.43;62.80;97879.47;10199517;28;20145;-59
2021/11/27 16:08:02;;;;;;;7.45;4.03;;;;;;;5.42;63.04;97888.38;10198740;28;20059;-59
2021/11/27 16:13:03;;;;;;;6.95;3.67;;;;;;;5.29;63.57;97880.81;10200003;28;20238;-59
2021/11/27 16:18:04;;;;;;;5.75;4.00;;;;;;;5.34;63.99;97890.09;10199746;28;20131;-59
2021/11/27 16:23:06;;;;;;;6.30;3.53;;;;;;;5.37;63.20;97902.97;10199193;28;20126;-59
2021/11/27 16:28:08;;;;;;;5.80;3.58;;;;;;;5.13;64.10;97892.00;10222704;23;20130;-65
2021/11/27 16:33:09;;;;;;;10.82;3.83;;;;;;;5.09;64.75;97913.56;10282168;28;20161;-63
2021/11/27 16:38:11;;;;;;;6.88;4.03;;;;;;;5.18;65.81;97909.19;10306577;28;20078;-63
2021/11/27 16:43:13;;;;;;;6.40;4.80;;;;;;;5.00;64.56;97895.94;10328867;28;20129;-63
2021/11/27 16:48:14;;;;;;;7.47;4.75;;;;;;;5.03;64.82;97899.13;10312116;28;20459;-64
2021/11/27 16:53:16;;;;;;;7.38;4.97;;;;;;;5.05;65.32;97920.09;10325636;28;20057;-61
2021/11/27 16:58:17;;;;;;;7.32;5.28;;;;;;;4.98;65.81;97921.63;10323097;28;20057;-64
2021/11/27 17:03:19;;;;;;;6.57;5.05;;;;;;;4.95;67.04;97928.03;10306745;28;20129;-63
2021/11/27 17:08:27;;;;;;;10.20;5.55;;;;;;;4.81;66.48;97900.34;10317643;28;20135;-64
2021/11/27 17:13:29;;;;;;;6.63;5.18;;;;;;;4.98;67.29;97938.28;10331428;28;20053;-63
2021/11/27 17:18:31;;;;;;;7.25;5.53;;;;;;;5.11;67.51;97957.25;10303214;28;20064;-61
2021/11/27 17:23:32;;;;;;;8.65;6.53;;;;;;;5.23;67.60;97960.53;10324464;28;20057;-63
2021/11/27 17:28:33;;;;;;;8.07;5.82;;;;;;;5.18;67.73;97959.28;10321866;28;20058;-62
2021/11/27 17:33:36;;;;;;;6.85;6.25;;;;;;;5.27;67.81;97964.53;10321783;28;20050;-63
2021/11/27 17:38:37;;;;;;;10.27;6.90;;;;;;;5.35;67.78;97979.63;10321613;28;20050;-62
2021/11/27 17:43:39;;;;;;;6.32;5.70;;;;;;;5.13;68.42;97959.72;10323874;28;20433;-63
2021/11/27 17:48:40;;;;;;;7.38;5.63;;;;;;;4.99;68.69;97965.50;10321652;28;20050;-61
2021/11/27 17:53:42;;;;;;;6.53;5.93;;;;;;;4.98;69.38;97982.28;10325729;28;20521;-62
2021/11/27 17:58:43;;;;;;;6.50;4.93;;;;;;;4.98;69.63;97979.66;10324580;28;20056;-63
2021/11/27 18:03:45;;;;;;;5.85;5.32;;;;;;;5.16;69.59;98000.81;10325964;28;20045;-62
2021/11/27 18:08:46;;;;;;;5.15;4.63;;;;;;;5.10;69.82;98004.84;10302107;28;20145;-62
2021/11/27 18:13:48;;;;;;;6.55;5.47;;;;;;;5.11;69.75;98006.53;10323432;28;20057;-62
2021/11/27 18:18:49;;;;;;;5.47;4.45;;;;;;;5.08;70.55;98020.81;10320991;28;20053;-62
2021/11/27 18:23:54;;;;;;;6.72;5.03;;;;;;;4.83;71.52;98018.81;10324026;28;20049;-62
2021/11/27 18:28:56;;;;;;;6.28;5.10;;;;;;;4.55;72.62;98006.38;10321262;28;20056;-62
2021/11/27 18:33:57;;;;;;;5.43;4.47;;;;;;;4.55;73.10;98030.09;10321165;28;20054;-62
2021/11/27 18:39:00;;;;;;;6.90;5.15;;;;;;;4.35;74.94;98023.97;10300932;28;20052;-62
2021/11/27 18:44:04;;;;;;;6.80;5.50;;;;;;;4.63;74.57;98044.38;10304446;28;20160;-62
2021/11/27 18:49:05;;;;;;;5.47;4.97;;;;;;;4.76;73.97;98047.56;10327487;28;20520;-63
2021/11/27 18:54:07;;;;;;;7.55;4.68;;;;;;;4.80;73.98;98051.53;10311830;28;20044;-63
2021/11/27 18:59:08;;;;;;;5.35;4.10;;;;;;;4.62;74.26;98040.88;10312940;28;20049;-63
2021/11/27 19:04:10;;;;;;;6.30;4.70;;;;;;;4.59;75.24;98054.34;10329148;28;20054;-63
2021/11/27 19:09:13;;;;;;;7.65;6.07;;;;;;;4.59;75.19;98042.00;10307527;28;20058;-63
2021/11/27 19:14:18;;;;;;;6.72;6.03;;;;;;;4.67;75.29;98051.00;10330210;28;20135;-63
2021/11/27 19:19:19;;;;;;;7.40;5.07;;;;;;;4.55;75.00;98052.97;10369667;28;20053;-63
2021/11/27 19:24:22;;;;;;;7.78;4.95;;;;;;;4.59;75.58;98071.00;10367109;28;20045;-63
2021/11/27 19:29:23;;;;;;;6.05;5.53;;;;;;;4.42;76.36;98058.50;10370544;28;20512;-63
2021/11/27 19:34:25;;;;;;;6.82;6.13;;;;;;;4.41;76.72;98073.50;10349975;28;20238;-62
2021/11/27 19:39:26;;;;;;;8.13;7.30;;;;;;;4.46;77.28;98075.72;10364567;28;20148;-63
2021/11/27 19:44:28;;;;;;;21.85;17.70;;;;;;;4.49;77.18;98077.22;10366165;28;20132;-63
2021/11/27 19:49:29;;;;;;;9.93;7.70;;;;;;;4.63;76.98;98078.63;10367168;28;20055;-63
2021/11/27 19:54:31;;;;;;;11.48;7.40;;;;;;;4.43;77.49;98079.44;10367931;28;20053;-63
2021/11/27 19:59:33;;;;;;;8.75;7.35;;;;;;;4.35;78.24;98075.81;10362336;28;20493;-63
2021/11/27 20:04:34;;;;;;;8.77;7.88;;;;;;;4.31;78.24;98085.81;10368993;28;20064;-62
2021/11/27 20:09:36;;;;;;;8.90;8.13;;;;;;;4.27;78.43;98083.59;10368574;28;20075;-63
2021/11/27 20:14:38;;;;;;;8.93;8.00;;;;;;;4.18;78.70;98075.53;10367108;28;20208;-63
2021/11/27 20:19:39;;;;;;;9.50;8.40;;;;;;;4.22;78.84;98084.84;10360828;28;20523;-63
2021/11/27 20:24:41;;;;;;;8.82;7.72;;;;;;;4.18;78.59;98079.97;10363609;28;20053;-63
2021/11/27 20:29:42;;;;;;;8.70;7.90;;;;;;;4.32;78.20;98099.81;10365762;28;20408;-62
2021/11/27 20:34:44;;;;;;;9.93;7.25;;;;;;;4.29;78.02;98100.09;10364508;28;20056;-63
2021/11/27 20:39:45;;;;;;;8.88;7.97;;;;;;;4.23;77.76;98097.03;10346760;28;20177;-65
2021/11/27 20:44:47;;;;;;;7.97;7.18;;;;;;;4.28;77.50;98098.41;10344106;28;21402;-63
2021/11/27 20:49:48;;;;;;;27.73;23.10;;;;;;;4.37;77.42;98118.69;10367274;28;20054;-63
2021/11/27 20:54:50;;;;;;;10.10;7.25;;;;;;;4.35;77.09;98120.59;10367479;28;20061;-64
2021/11/27 20:59:51;;;;;;;7.75;6.93;;;;;;;4.20;77.05;98102.59;10350653;28;20068;-64
2021/11/27 21:04:53;;;;;;;8.68;6.72;;;;;;;4.27;77.04;98120.47;10365975;28;20432;-63
2021/11/27 21:09:55;;;;;;;7.68;6.97;;;;;;;4.30;76.93;98122.81;10360083;28;20085;-64
2021/11/27 21:15:15;;;;;;;8.05;7.25;;;;;;;4.24;76.96;98124.19;10348266;28;20056;-64
2021/11/27 21:20:17;;;;;;;9.20;8.30;;;;;;;4.28;77.51;98114.22;10349146;28;20581;-64
2021/11/27 21:25:18;;;;;;;10.23;9.23;;;;;;;4.28;77.07;98115.06;10360007;28;20075;-64
2021/11/27 21:30:20;;;;;;;9.73;7.90;;;;;;;4.36;76.89;98122.28;10363414;28;20053;-64
2021/11/27 21:35:39;;;;;;;9.80;8.43;;;;;;;4.37;76.70;98121.31;10361984;28;20049;-64
2021/11/27 21:40:41;;;;;;;9.82;8.73;;;;;;;4.35;76.64;98115.34;10365398;28;20053;-64
2021/11/27 21:45:44;;;;;;;8.70;7.85;;;;;;;4.38;76.88;98108.03;10364312;28;20500;-64
2021/11/27 21:50:45;;;;;;;8.02;7.22;;;;;;;4.63;76.51;98128.69;10363188;28;20064;-64
2021/11/27 21:55:47;;;;;;;8.98;8.07;;;;;;;4.60;76.08;98124.53;10362943;28;20692;-64
2021/11/27 22:00:50;;;;;;;10.00;9.00;;;;;;;4.65;76.28;98135.47;10353783;28;20046;-64
2021/11/27 22:05:51;;;;;;;7.47;6.75;;;;;;;4.58;75.65;98113.31;10335574;28;20901;-63
2021/11/27 22:10:54;;;;;;;9.07;6.93;;;;;;;4.56;75.84;98109.94;10304192;28;20436;-65
2021/11/27 22:15:55;;;;;;;7.88;7.15;;;;;;;4.48;75.71;98118.53;10336134;28;20148;-64
2021/11/27 22:20:57;;;;;;;7.85;7.05;;;;;;;4.48;75.44;98112.47;10337493;28;20061;-65
2021/11/27 22:25:59;;;;;;;8.30;7.45;;;;;;;4.57;76.43;98124.81;10338610;28;20042;-64
2021/11/27 22:31:01;;;;;;;8.70;7.85;;;;;;;4.47;76.06;98118.69;10332797;28;20140;-64
2021/11/27 22:36:04;;;;;;;9.50;8.38;;;;;;;4.52;76.40;98125.22;10334573;28;20042;-64
2021/11/27 22:41:09;;;;;;;12.55;10.57;;;;;;;4.39;77.06;98112.28;10335511;28;20209;-64
2021/11/27 22:46:11;;;;;;;10.85;9.80;;;;;;;4.36;76.43;98112.56;10338210;28;20153;-64
2021/11/27 22:51:13;;;;;;;9.45;8.45;;;;;;;4.38;76.30;98115.06;10337843;28;20050;-65
2021/11/27 22:56:14;;;;;;;9.10;8.30;;;;;;;4.42;76.55;98117.28;10340525;28;20501;-64
2021/11/27 23:01:17;;;;;;;11.35;9.07;;;;;;;4.51;75.85;98115.63;10334672;28;20133;-64
2021/11/27 23:06:20;;;;;;;10.93;8.27;;;;;;;4.34;75.32;98097.88;10338798;28;20050;-64
2021/11/27 23:11:25;;;;;;;13.23;8.55;;;;;;;4.47;75.83;98105.50;10321083;28;20047;-64
2021/11/27 23:16:28;;;;;;;;;;;;;;;4.40;75.63;98102.63;10336227;28;20548;-64
2021/11/27 23:21:34;;;;;;;14.07;12.68;;;;;;;4.41;76.64;98099.84;10336088;28;19929;-63
2021/11/27 23:26:35;;;;;;;15.18;13.57;;;;;;;4.31;77.04;98101.63;10330621;28;20050;-63
2021/11/27 23:31:37;;;;;;;16.30;14.60;;;;;;;4.34;77.09;98088.19;10333226;28;20137;-63
2021/11/27 23:36:39;;;;;;;14.50;13.00;;;;;;;4.40;77.41;98102.63;10329137;28;20058;-63
2021/11/27 23:41:40;;;;;;;15.75;12.93;;;;;;;4.33;77.50;98085.69;10299400;28;20074;-63
2021/11/27 23:46:42;;;;;;;13.18;11.90;;;;;;;4.46;77.34;98090.66;10283921;28;20070;-63